AirNav   Everest Fuels
 
 287 users online  

AL41 Freedom Field Airport
Slocomb, Alabama, USA

GOING TO SLOCOMB?


FAA INFORMATION EFFECTIVE 12 SEPTEMBER 2019

Location

FAA Identifier: AL41
Lat/Long: 31-06-57.6380N 085-37-31.7600W
31-06.960633N 085-37.529333W
31.1160106,-85.6254889
(estimated)
Elevation: 285 ft. / 87 m (estimated)
Variation: 00W (1985)
From city: 1 mile WNW of SLOCOMB, AL
Time zone: UTC -5 (UTC -6 during Standard Time)
Zip code: 36375

Airport Operations

Airport use: Private use. Permission required prior to landing
Activation date: 01/1983
Control tower: no
ARTCC: JACKSONVILLE CENTER
FSS: ANNISTON FLIGHT SERVICE STATION
Attendance: MON-SAT 0800-1700, ALL SUN 1200-1700
Wind indicator: lighted
Segmented circle: no
Lights: FOR MIRL RY 10/28 CALL 334-796-8886
Beacon: yellow (unlighted seaplane base)
Operates sunset to sunrise.

Airport Communications

WX ASOS at DHN (15 nm NE): PHONE 334-983-5999
WX AWOS-3PT at EDN (18 nm NW): 118.9 (334-347-3524)

Nearby radio navigation aids

VOR radial/distance  VOR name  Freq  Var
OZRr154/10.5CAIRNS VOR/DME111.2003W
RRSr223/14.2WIREGRASS VORTAC111.6002E
HEYr178/(15.6)HANCHEY VOR110.6003W
EDNr130/(17.9)ENTERPRISE VOR116.6003W
MAIr308/32.5MARIANNA VORTAC114.0000E

 
NDB name  Hdg/Dist  Freq  Var  ID
RUCKR127/11.821203WOZ --- --..
HANCHEY178/15.722103WHYE .... -.-- .
LOWE161/15.926903WLOR .-.. --- .-.
BOLL WEEVIL129/22.735203WBVG -... ...- --.
SOYYA307/25.332902WSMY ... -- -.--

Airport Services

Runway Information

Runway 10/28

Dimensions: 3300 x 90 ft. / 1006 x 27 m
Surface: turf
Runway edge lights: medium intensity
RUNWAY 10  RUNWAY 28
Traffic pattern: leftright
Markings: none
Obstructions: none15 ft. tower, 123 ft. from runway, 65 ft. right of centerline, 8:1 slope to clear

Airport Ownership and Management from official FAA records

Ownership: Privately-owned
Owner: HOWARD P. CULBRETH, JR.
500 WOODLAND DR
DOTHAN, AL 36301
Phone 334-793-4855
WORK PHONE NUMBER 334-796-8886
Manager: PAUL GAINOUS
517 AIRPORT RD
SLOCOMB, AL 36375
Phone (334) 790-8420

Airport Operational Statistics

Aircraft based on the field: 27
Single engine airplanes: 20
Multi engine airplanes: 2
Ultralights: 5
    

Additional Remarks

FOR CD CTC JACKSONVILLE ARTCC AT 904-845-1592.

Instrument Procedures

There are no published instrument procedures at AL41.

Some nearby airports with instrument procedures:

KOZR - Cairns Army Airfield (Fort Rucker) (11 nm NW)
33J - Geneva Municipal Airport (13 nm W)
KHEY - Hanchey Army Heliport (Fort Rucker) (14 nm N)
KDHN - Dothan Regional Airport (15 nm NE)
KLOR - Lowe Army Heliport (Fort Rucker) (16 nm NW)
1J0 - Tri-County Airport (16 nm S)
KEDN - Enterprise Municipal Airport (18 nm NW)
71J - Ozark-Blackwell Field Airport (19 nm N)
 
Loc | Ops | Rwys | IFR | FBO | Links
Com | Nav | Svcs | Stats | Notes
Area around AL41 (Freedom Field Airport)
 
Road maps at: MapQuest Bing Google
 
Aerial photo
WARNING: Photo may not be current or correct
Aerial photo of AL41 (Freedom Field Airport)
Photo taken 14-Feb-2005

Do you have a better or more recent aerial photo of Freedom Field Airport that you would like to share? If so, please send us your photo.

 
Sectional chart

 
Airport distance calculator
Flying to Freedom Field Airport? Find the distance to fly.

From to AL41

Sunrise and sunset
Times for 24-Sep-2019
 Local
(UTC-5)
 Zulu
(UTC)
Morning civil twilight06:0911:09
Sunrise06:3311:33
Sunset18:3623:36
Evening civil twilight19:0000:00

Current date and time
Zulu (UTC)  24-Sep-2019 09:03:20
Local (UTC-5)  24-Sep-2019 04:03:20
 
METAR
KOZR 
11nm NW 
240856Z AUTO 00000KT 10SM CLR 18/16 A2994 RMK AO2 SLP138 T01790162 55007
KHEY 
14nm N 
240858Z AUTO 00000KT 10SM CLR 17/17 A2994 RMK AO2 SLP138 T01730173 55006
KDHN 
15nm NE 
240853Z AUTO 30005KT 10SM CLR 22/16 A2997 RMK AO2 SLP144 T02170161 55008
KLOR 
15nm NW 
240858Z AUTO 00000KT 9SM CLR 17/16 A2994 RMK AO2 SLP120 T01650163 55006
K1J0 
16nm S 
240358Z AUTO 00000KT 10SM CLR 22/19 A3000 RMK AO2 SLP117 T02170189 $
KEDN 
18nm NW 
240855Z AUTO 00000KT 10SM CLR 19/18 A2995 RMK AO2 T01870183
KSXS 
19nm NW 
240858Z AUTO 31004KT 6SM HZ CLR 21/17 A2994 RMK AO2 SLP136 T02050170 55006
TAF
KOZR 
11nm NW 
240800Z 2408/2514 VRB04KT 9999 FEW040 QNH2990INS BECMG 2414/2415 31006KT 9999 SCT080 QNH2988INS TX33/2421Z TN17/2412Z
KDHN 
15nm NE 
240520Z 2406/2506 31006KT P6SM SCT050
NOTAMs
Click for the latest NOTAMs
NOTAMs are issued by the DoD/FAA and will open in a separate window not controlled by AirNav.

 

 
 

Would you like to see your business listed on this page?

 If your business provides an interesting product or service to pilots, flight crews, aircraft, or users of the Freedom Field Airport, you should consider listing it here.  To start the listing process, click on the button below
 
Add a business
 

Other Pages about Freedom Field Airport

Update a link
 
Copyright © AirNav, LLC. All rights reserved. Privacy Policy  Contact